Gale, Illinois
Current Conditions -  °F | °C
As of 3:53 PM on Monday 26 Jan 2015 (Local Time) from KCGI Reporting Station
Overcast Overcast  
Wind Chill: 33°   Ceiling: 7500
Heat Index: 39°   Visibility: 10mi
Dew Point: 31°   Wind: 9mph
Humidity: 73%   Direction: 180°S
Pressure: 29.93"   Gusts: NA
Location:  37.1947°N, 89.3961°W
Report Text: KCGI 262153Z 18008KT 10SM OVC075 04/M01 A2993 RMK AO2 SLP136 T00391006
Loading
Personal Weather Stations






























Interactive Weather Map New forecast layout! Learn more

10-Day Weather Forecast

Advertisements
Track Severe Weather on mobile